sensor_id;sensor_type;location;lat;lon;timestamp;P1;durP1;ratioP1;P2;durP2;ratioP2
76433;SDS011;65265;53.200;6.080;2023-04-01T00:03:50;9.43;;;4.28;;
76433;SDS011;65265;53.200;6.080;2023-04-01T00:08:44;10.00;;;4.60;;
76433;SDS011;65265;53.200;6.080;2023-04-01T00:13:38;6.28;;;3.63;;
76433;SDS011;65265;53.200;6.080;2023-04-01T00:18:34;9.70;;;4.65;;
76433;SDS011;65265;53.200;6.080;2023-04-01T00:23:28;7.50;;;4.43;;
76433;SDS011;65265;53.200;6.080;2023-04-01T00:28:21;6.55;;;3.88;;
76433;SDS011;65265;53.200;6.080;2023-04-01T00:33:14;10.25;;;4.57;;
76433;SDS011;65265;53.200;6.080;2023-04-01T00:38:10;11.52;;;4.57;;
76433;SDS011;65265;53.200;6.080;2023-04-01T00:43:08;10.60;;;4.20;;
76433;SDS011;65265;53.200;6.080;2023-04-01T00:48:05;10.38;;;4.95;;
76433;SDS011;65265;53.200;6.080;2023-04-01T00:53:02;9.20;;;5.20;;
76433;SDS011;65265;53.200;6.080;2023-04-01T00:57:59;10.23;;;5.28;;
76433;SDS011;65265;53.200;6.080;2023-04-01T01:02:54;12.38;;;5.65;;
76433;SDS011;65265;53.200;6.080;2023-04-01T01:07:47;10.73;;;5.50;;
76433;SDS011;65265;53.200;6.080;2023-04-01T01:12:49;11.57;;;6.32;;
76433;SDS011;65265;53.200;6.080;2023-04-01T01:17:56;11.55;;;5.68;;
76433;SDS011;65265;53.200;6.080;2023-04-01T01:22:59;11.95;;;6.15;;
76433;SDS011;65265;53.200;6.080;2023-04-01T01:28:26;11.50;;;6.15;;
76433;SDS011;65265;53.200;6.080;2023-04-01T01:33:42;10.27;;;5.82;;
76433;SDS011;65265;53.200;6.080;2023-04-01T01:38:47;10.88;;;5.43;;
76433;SDS011;65265;53.200;6.080;2023-04-01T01:43:42;12.10;;;5.55;;
76433;SDS011;65265;53.200;6.080;2023-04-01T01:48:39;11.88;;;5.70;;
76433;SDS011;65265;53.200;6.080;2023-04-01T01:53:34;10.32;;;5.07;;
76433;SDS011;65265;53.200;6.080;2023-04-01T01:58:30;12.93;;;6.22;;
76433;SDS011;65265;53.200;6.080;2023-04-01T02:03:30;15.10;;;7.72;;
76433;SDS011;65265;53.200;6.080;2023-04-01T02:08:28;12.77;;;5.95;;
76433;SDS011;65265;53.200;6.080;2023-04-01T02:13:29;13.93;;;6.55;;
76433;SDS011;65265;53.200;6.080;2023-04-01T02:18:28;12.55;;;6.90;;
76433;SDS011;65265;53.200;6.080;2023-04-01T02:23:28;15.30;;;6.72;;
76433;SDS011;65265;53.200;6.080;2023-04-01T02:33:17;12.02;;;6.00;;
76433;SDS011;65265;53.200;6.080;2023-04-01T02:38:11;13.48;;;6.43;;
76433;SDS011;65265;53.200;6.080;2023-04-01T02:43:06;17.73;;;7.28;;
76433;SDS011;65265;53.200;6.080;2023-04-01T02:47:58;16.45;;;7.20;;
76433;SDS011;65265;53.200;6.080;2023-04-01T02:52:53;15.60;;;6.82;;
76433;SDS011;65265;53.200;6.080;2023-04-01T02:57:46;19.70;;;8.80;;
76433;SDS011;65265;53.200;6.080;2023-04-01T03:02:42;21.88;;;7.95;;
76433;SDS011;65265;53.200;6.080;2023-04-01T03:07:34;16.58;;;7.40;;
76433;SDS011;65265;53.200;6.080;2023-04-01T03:12:29;19.63;;;9.40;;
76433;SDS011;65265;53.200;6.080;2023-04-01T03:17:22;17.90;;;8.25;;
76433;SDS011;65265;53.200;6.080;2023-04-01T03:22:15;19.83;;;8.30;;
76433;SDS011;65265;53.200;6.080;2023-04-01T03:27:11;17.25;;;8.77;;
76433;SDS011;65265;53.200;6.080;2023-04-01T03:32:06;17.42;;;7.43;;
76433;SDS011;65265;53.200;6.080;2023-04-01T03:36:59;21.00;;;8.98;;
76433;SDS011;65265;53.200;6.080;2023-04-01T03:41:52;19.88;;;8.88;;
76433;SDS011;65265;53.200;6.080;2023-04-01T03:51:40;19.85;;;9.18;;
76433;SDS011;65265;53.200;6.080;2023-04-01T03:56:35;22.02;;;9.15;;
76433;SDS011;65265;53.200;6.080;2023-04-01T04:01:28;19.95;;;9.77;;
76433;SDS011;65265;53.200;6.080;2023-04-01T04:06:21;22.33;;;9.82;;
76433;SDS011;65265;53.200;6.080;2023-04-01T04:11:17;23.33;;;9.82;;
76433;SDS011;65265;53.200;6.080;2023-04-01T04:16:11;25.83;;;10.88;;
76433;SDS011;65265;53.200;6.080;2023-04-01T04:21:04;25.33;;;10.05;;
76433;SDS011;65265;53.200;6.080;2023-04-01T04:25:59;29.35;;;11.02;;
76433;SDS011;65265;53.200;6.080;2023-04-01T04:30:59;25.23;;;11.95;;
76433;SDS011;65265;53.200;6.080;2023-04-01T04:35:54;23.45;;;11.07;;
76433;SDS011;65265;53.200;6.080;2023-04-01T04:40:48;24.58;;;11.05;;
76433;SDS011;65265;53.200;6.080;2023-04-01T04:45:41;20.70;;;9.65;;
76433;SDS011;65265;53.200;6.080;2023-04-01T04:55:28;32.17;;;12.27;;
76433;SDS011;65265;53.200;6.080;2023-04-01T05:00:20;32.75;;;12.68;;
76433;SDS011;65265;53.200;6.080;2023-04-01T05:05:13;31.48;;;11.90;;
76433;SDS011;65265;53.200;6.080;2023-04-01T05:10:09;31.98;;;11.55;;
76433;SDS011;65265;53.200;6.080;2023-04-01T05:15:02;26.13;;;10.75;;
76433;SDS011;65265;53.200;6.080;2023-04-01T05:19:55;28.50;;;12.52;;
76433;SDS011;65265;53.200;6.080;2023-04-01T05:24:48;30.90;;;11.85;;
76433;SDS011;65265;53.200;6.080;2023-04-01T05:29:43;31.20;;;12.60;;
76433;SDS011;65265;53.200;6.080;2023-04-01T05:34:36;34.53;;;13.07;;
76433;SDS011;65265;53.200;6.080;2023-04-01T05:39:29;29.05;;;11.63;;
76433;SDS011;65265;53.200;6.080;2023-04-01T05:44:21;33.88;;;12.55;;
76433;SDS011;65265;53.200;6.080;2023-04-01T05:49:17;28.17;;;11.25;;
76433;SDS011;65265;53.200;6.080;2023-04-01T05:54:09;31.25;;;12.52;;
76433;SDS011;65265;53.200;6.080;2023-04-01T06:03:56;30.35;;;12.05;;
76433;SDS011;65265;53.200;6.080;2023-04-01T06:08:53;35.78;;;14.13;;
76433;SDS011;65265;53.200;6.080;2023-04-01T06:19:07;29.42;;;12.00;;
76433;SDS011;65265;53.200;6.080;2023-04-01T06:24:24;27.17;;;11.75;;
76433;SDS011;65265;53.200;6.080;2023-04-01T06:29:46;29.85;;;12.15;;
76433;SDS011;65265;53.200;6.080;2023-04-01T06:35:02;28.30;;;12.40;;
76433;SDS011;65265;53.200;6.080;2023-04-01T06:40:16;26.00;;;11.75;;
76433;SDS011;65265;53.200;6.080;2023-04-01T06:45:33;27.70;;;11.25;;
76433;SDS011;65265;53.200;6.080;2023-04-01T06:50:33;26.55;;;11.40;;
76433;SDS011;65265;53.200;6.080;2023-04-01T06:55:36;24.85;;;11.02;;
76433;SDS011;65265;53.200;6.080;2023-04-01T07:00:36;27.65;;;11.77;;
76433;SDS011;65265;53.200;6.080;2023-04-01T07:05:33;25.88;;;10.57;;
76433;SDS011;65265;53.200;6.080;2023-04-01T07:10:32;29.40;;;11.45;;
76433;SDS011;65265;53.200;6.080;2023-04-01T07:15:36;27.45;;;10.93;;
76433;SDS011;65265;53.200;6.080;2023-04-01T07:20:32;28.50;;;12.15;;
76433;SDS011;65265;53.200;6.080;2023-04-01T07:25:29;29.98;;;12.48;;
76433;SDS011;65265;53.200;6.080;2023-04-01T07:30:33;28.33;;;11.52;;
76433;SDS011;65265;53.200;6.080;2023-04-01T07:35:38;24.13;;;10.25;;
76433;SDS011;65265;53.200;6.080;2023-04-01T07:40:43;25.52;;;10.55;;
76433;SDS011;65265;53.200;6.080;2023-04-01T07:45:45;26.30;;;11.60;;
76433;SDS011;65265;53.200;6.080;2023-04-01T07:50:50;22.23;;;10.93;;
76433;SDS011;65265;53.200;6.080;2023-04-01T07:55:57;22.40;;;10.75;;
76433;SDS011;65265;53.200;6.080;2023-04-01T08:00:59;24.83;;;10.93;;
76433;SDS011;65265;53.200;6.080;2023-04-01T08:05:59;21.38;;;10.60;;
76433;SDS011;65265;53.200;6.080;2023-04-01T08:10:56;20.77;;;10.10;;
76433;SDS011;65265;53.200;6.080;2023-04-01T08:16:00;25.95;;;12.70;;
76433;SDS011;65265;53.200;6.080;2023-04-01T08:21:01;27.05;;;11.63;;
76433;SDS011;65265;53.200;6.080;2023-04-01T08:25:56;25.48;;;10.55;;
76433;SDS011;65265;53.200;6.080;2023-04-01T08:30:58;19.20;;;8.23;;
76433;SDS011;65265;53.200;6.080;2023-04-01T08:35:57;19.25;;;7.70;;
76433;SDS011;65265;53.200;6.080;2023-04-01T08:41:00;15.05;;;6.93;;
76433;SDS011;65265;53.200;6.080;2023-04-01T08:46:06;15.80;;;6.78;;
76433;SDS011;65265;53.200;6.080;2023-04-01T08:57:04;15.75;;;6.35;;
76433;SDS011;65265;53.200;6.080;2023-04-01T09:07:35;9.80;;;4.63;;
76433;SDS011;65265;53.200;6.080;2023-04-01T09:12:47;12.90;;;4.72;;
76433;SDS011;65265;53.200;6.080;2023-04-01T09:23:56;6.43;;;3.63;;
76433;SDS011;65265;53.200;6.080;2023-04-01T09:29:20;5.85;;;2.85;;
76433;SDS011;65265;53.200;6.080;2023-04-01T09:34:32;8.18;;;4.63;;
76433;SDS011;65265;53.200;6.080;2023-04-01T09:39:47;8.07;;;4.75;;
76433;SDS011;65265;53.200;6.080;2023-04-01T09:44:57;10.50;;;6.32;;
76433;SDS011;65265;53.200;6.080;2023-04-01T09:49:59;14.43;;;6.22;;
76433;SDS011;65265;53.200;6.080;2023-04-01T09:55:17;10.30;;;7.18;;
76433;SDS011;65265;53.200;6.080;2023-04-01T10:17:01;8.95;;;5.75;;
76433;SDS011;65265;53.200;6.080;2023-04-01T10:22:22;6.70;;;5.25;;
76433;SDS011;65265;53.200;6.080;2023-04-01T10:27:44;9.20;;;3.92;;
76433;SDS011;65265;53.200;6.080;2023-04-01T10:38:41;5.95;;;3.35;;
76433;SDS011;65265;53.200;6.080;2023-04-01T10:44:13;6.47;;;3.30;;
76433;SDS011;65265;53.200;6.080;2023-04-01T10:55:18;7.18;;;3.65;;
76433;SDS011;65265;53.200;6.080;2023-04-01T11:00:34;6.35;;;4.70;;
76433;SDS011;65265;53.200;6.080;2023-04-01T11:05:59;7.85;;;4.10;;
76433;SDS011;65265;53.200;6.080;2023-04-01T11:17:14;3.60;;;2.40;;
76433;SDS011;65265;53.200;6.080;2023-04-01T11:22:57;5.25;;;2.13;;
76433;SDS011;65265;53.200;6.080;2023-04-01T11:28:23;4.13;;;2.28;;
76433;SDS011;65265;53.200;6.080;2023-04-01T11:33:31;3.30;;;1.77;;
76433;SDS011;65265;53.200;6.080;2023-04-01T11:49:28;3.17;;;2.03;;
76433;SDS011;65265;53.200;6.080;2023-04-01T11:54:33;4.90;;;2.35;;
76433;SDS011;65265;53.200;6.080;2023-04-01T11:59:51;4.38;;;1.65;;
76433;SDS011;65265;53.200;6.080;2023-04-01T12:10:28;4.82;;;2.45;;
76433;SDS011;65265;53.200;6.080;2023-04-01T12:15:36;4.38;;;3.15;;
76433;SDS011;65265;53.200;6.080;2023-04-01T12:20:51;4.53;;;2.17;;
76433;SDS011;65265;53.200;6.080;2023-04-01T12:26:00;4.97;;;2.70;;
76433;SDS011;65265;53.200;6.080;2023-04-01T12:31:12;2.85;;;1.45;;
76433;SDS011;65265;53.200;6.080;2023-04-01T12:36:18;4.82;;;1.85;;
76433;SDS011;65265;53.200;6.080;2023-04-01T12:41:23;5.18;;;1.58;;
76433;SDS011;65265;53.200;6.080;2023-04-01T12:46:29;4.18;;;1.27;;
76433;SDS011;65265;53.200;6.080;2023-04-01T12:51:40;3.22;;;1.30;;
76433;SDS011;65265;53.200;6.080;2023-04-01T12:56:44;2.88;;;1.42;;
76433;SDS011;65265;53.200;6.080;2023-04-01T13:12:58;2.25;;;1.60;;
76433;SDS011;65265;53.200;6.080;2023-04-01T13:18:05;3.83;;;2.25;;
76433;SDS011;65265;53.200;6.080;2023-04-01T13:23:25;6.95;;;2.15;;
76433;SDS011;65265;53.200;6.080;2023-04-01T13:28:27;2.42;;;2.22;;
76433;SDS011;65265;53.200;6.080;2023-04-01T13:33:26;3.58;;;1.90;;
76433;SDS011;65265;53.200;6.080;2023-04-01T13:38:43;4.55;;;1.88;;
76433;SDS011;65265;53.200;6.080;2023-04-01T13:44:07;2.88;;;1.38;;
76433;SDS011;65265;53.200;6.080;2023-04-01T13:59:55;2.72;;;1.45;;
76433;SDS011;65265;53.200;6.080;2023-04-01T14:05:09;2.50;;;1.55;;
76433;SDS011;65265;53.200;6.080;2023-04-01T14:10:20;4.88;;;2.15;;
76433;SDS011;65265;53.200;6.080;2023-04-01T14:15:27;2.17;;;1.70;;
76433;SDS011;65265;53.200;6.080;2023-04-01T14:20:31;2.70;;;2.28;;
76433;SDS011;65265;53.200;6.080;2023-04-01T14:25:38;2.38;;;1.15;;
76433;SDS011;65265;53.200;6.080;2023-04-01T14:30:50;2.67;;;1.02;;
76433;SDS011;65265;53.200;6.080;2023-04-01T14:36:03;1.67;;;1.58;;
76433;SDS011;65265;53.200;6.080;2023-04-01T14:41:17;3.67;;;1.35;;
76433;SDS011;65265;53.200;6.080;2023-04-01T14:51:43;6.00;;;1.70;;
76433;SDS011;65265;53.200;6.080;2023-04-01T14:56:39;2.72;;;1.55;;
76433;SDS011;65265;53.200;6.080;2023-04-01T15:01:35;2.65;;;1.38;;
76433;SDS011;65265;53.200;6.080;2023-04-01T15:06:45;4.28;;;2.38;;
76433;SDS011;65265;53.200;6.080;2023-04-01T15:11:56;1.85;;;1.27;;
76433;SDS011;65265;53.200;6.080;2023-04-01T15:17:03;2.95;;;1.10;;
76433;SDS011;65265;53.200;6.080;2023-04-01T15:22:28;3.38;;;1.75;;
76433;SDS011;65265;53.200;6.080;2023-04-01T15:27:37;4.32;;;2.15;;
76433;SDS011;65265;53.200;6.080;2023-04-01T15:32:43;3.50;;;2.60;;
76433;SDS011;65265;53.200;6.080;2023-04-01T15:37:55;4.30;;;1.63;;
76433;SDS011;65265;53.200;6.080;2023-04-01T15:43:01;3.28;;;1.90;;
76433;SDS011;65265;53.200;6.080;2023-04-01T15:48:24;4.00;;;1.80;;
76433;SDS011;65265;53.200;6.080;2023-04-01T15:53:34;3.95;;;1.80;;
76433;SDS011;65265;53.200;6.080;2023-04-01T15:58:41;5.55;;;3.90;;
76433;SDS011;65265;53.200;6.080;2023-04-01T16:03:44;7.03;;;3.55;;
76433;SDS011;65265;53.200;6.080;2023-04-01T16:08:55;6.38;;;3.38;;
76433;SDS011;65265;53.200;6.080;2023-04-01T16:14:07;7.47;;;3.60;;
76433;SDS011;65265;53.200;6.080;2023-04-01T16:19:29;9.10;;;4.90;;
76433;SDS011;65265;53.200;6.080;2023-04-01T16:24:33;11.02;;;3.58;;
76433;SDS011;65265;53.200;6.080;2023-04-01T16:29:34;8.88;;;4.55;;
76433;SDS011;65265;53.200;6.080;2023-04-01T16:34:34;8.50;;;4.30;;
76433;SDS011;65265;53.200;6.080;2023-04-01T16:39:43;6.65;;;4.25;;
76433;SDS011;65265;53.200;6.080;2023-04-01T16:44:44;9.63;;;4.38;;
76433;SDS011;65265;53.200;6.080;2023-04-01T16:49:44;6.90;;;4.47;;
76433;SDS011;65265;53.200;6.080;2023-04-01T16:54:51;9.95;;;4.45;;
76433;SDS011;65265;53.200;6.080;2023-04-01T16:59:54;5.03;;;3.35;;
76433;SDS011;65265;53.200;6.080;2023-04-01T17:04:52;8.05;;;4.85;;
76433;SDS011;65265;53.200;6.080;2023-04-01T17:09:54;7.65;;;4.32;;
76433;SDS011;65265;53.200;6.080;2023-04-01T17:14:59;11.77;;;5.47;;
76433;SDS011;65265;53.200;6.080;2023-04-01T17:20:08;8.63;;;5.32;;
76433;SDS011;65265;53.200;6.080;2023-04-01T17:25:17;8.30;;;6.13;;
76433;SDS011;65265;53.200;6.080;2023-04-01T17:30:30;7.90;;;5.22;;
76433;SDS011;65265;53.200;6.080;2023-04-01T17:35:30;9.52;;;5.18;;
76433;SDS011;65265;53.200;6.080;2023-04-01T17:45:44;9.65;;;5.25;;
76433;SDS011;65265;53.200;6.080;2023-04-01T17:50:48;8.70;;;4.95;;
76433;SDS011;65265;53.200;6.080;2023-04-01T17:55:57;10.95;;;6.07;;
76433;SDS011;65265;53.200;6.080;2023-04-01T18:01:00;11.75;;;6.25;;
76433;SDS011;65265;53.200;6.080;2023-04-01T18:06:04;11.75;;;5.20;;
76433;SDS011;65265;53.200;6.080;2023-04-01T18:11:08;8.60;;;4.35;;
76433;SDS011;65265;53.200;6.080;2023-04-01T18:16:15;7.07;;;4.38;;
76433;SDS011;65265;53.200;6.080;2023-04-01T18:21:24;11.63;;;4.97;;
76433;SDS011;65265;53.200;6.080;2023-04-01T18:26:27;8.18;;;4.10;;
76433;SDS011;65265;53.200;6.080;2023-04-01T18:31:23;10.73;;;5.35;;
76433;SDS011;65265;53.200;6.080;2023-04-01T18:36:21;9.23;;;4.90;;
76433;SDS011;65265;53.200;6.080;2023-04-01T18:41:30;10.38;;;5.57;;
76433;SDS011;65265;53.200;6.080;2023-04-01T18:46:30;7.75;;;4.35;;
76433;SDS011;65265;53.200;6.080;2023-04-01T18:51:36;10.98;;;6.30;;
76433;SDS011;65265;53.200;6.080;2023-04-01T18:56:40;14.40;;;5.32;;
76433;SDS011;65265;53.200;6.080;2023-04-01T19:01:36;6.97;;;5.25;;
76433;SDS011;65265;53.200;6.080;2023-04-01T19:06:35;12.43;;;6.13;;
76433;SDS011;65265;53.200;6.080;2023-04-01T19:11:38;9.68;;;5.35;;
76433;SDS011;65265;53.200;6.080;2023-04-01T19:16:43;11.07;;;5.30;;
76433;SDS011;65265;53.200;6.080;2023-04-01T19:21:47;8.00;;;4.25;;
76433;SDS011;65265;53.200;6.080;2023-04-01T19:26:52;7.93;;;4.40;;
76433;SDS011;65265;53.200;6.080;2023-04-01T19:31:54;12.18;;;5.07;;
76433;SDS011;65265;53.200;6.080;2023-04-01T19:36:59;9.63;;;5.07;;
76433;SDS011;65265;53.200;6.080;2023-04-01T19:41:59;8.02;;;4.22;;
76433;SDS011;65265;53.200;6.080;2023-04-01T19:47:00;7.47;;;4.38;;
76433;SDS011;65265;53.200;6.080;2023-04-01T19:52:03;7.80;;;4.38;;
76433;SDS011;65265;53.200;6.080;2023-04-01T19:57:09;11.88;;;4.90;;
76433;SDS011;65265;53.200;6.080;2023-04-01T20:02:22;9.27;;;5.65;;
76433;SDS011;65265;53.200;6.080;2023-04-01T20:07:30;17.67;;;6.18;;
76433;SDS011;65265;53.200;6.080;2023-04-01T20:12:37;11.75;;;6.57;;
76433;SDS011;65265;53.200;6.080;2023-04-01T20:17:38;7.60;;;4.45;;
76433;SDS011;65265;53.200;6.080;2023-04-01T20:22:51;9.00;;;5.20;;
76433;SDS011;65265;53.200;6.080;2023-04-01T20:27:55;9.25;;;6.10;;
76433;SDS011;65265;53.200;6.080;2023-04-01T20:32:58;12.13;;;6.15;;
76433;SDS011;65265;53.200;6.080;2023-04-01T20:38:06;11.18;;;6.60;;
76433;SDS011;65265;53.200;6.080;2023-04-01T20:54:28;10.63;;;5.53;;
76433;SDS011;65265;53.200;6.080;2023-04-01T20:59:40;10.88;;;3.83;;
76433;SDS011;65265;53.200;6.080;2023-04-01T21:05:00;8.18;;;5.03;;
76433;SDS011;65265;53.200;6.080;2023-04-01T21:10:17;12.25;;;5.65;;
76433;SDS011;65265;53.200;6.080;2023-04-01T21:15:52;12.32;;;5.40;;
76433;SDS011;65265;53.200;6.080;2023-04-01T21:26:32;10.77;;;5.05;;
76433;SDS011;65265;53.200;6.080;2023-04-01T21:36:58;8.82;;;4.05;;
76433;SDS011;65265;53.200;6.080;2023-04-01T21:42:12;8.80;;;4.38;;
76433;SDS011;65265;53.200;6.080;2023-04-01T21:52:58;8.02;;;4.13;;
76433;SDS011;65265;53.200;6.080;2023-04-01T21:58:25;10.30;;;4.85;;
76433;SDS011;65265;53.200;6.080;2023-04-01T22:03:38;7.78;;;3.10;;
76433;SDS011;65265;53.200;6.080;2023-04-01T22:08:55;11.18;;;4.13;;
76433;SDS011;65265;53.200;6.080;2023-04-01T22:13:56;10.55;;;4.82;;
76433;SDS011;65265;53.200;6.080;2023-04-01T22:18:56;7.43;;;4.40;;
76433;SDS011;65265;53.200;6.080;2023-04-01T22:24:04;8.07;;;3.95;;
76433;SDS011;65265;53.200;6.080;2023-04-01T22:29:05;6.88;;;4.05;;
76433;SDS011;65265;53.200;6.080;2023-04-01T22:34:08;11.13;;;4.15;;
76433;SDS011;65265;53.200;6.080;2023-04-01T22:39:14;6.70;;;2.85;;
76433;SDS011;65265;53.200;6.080;2023-04-01T22:44:20;6.18;;;3.17;;
76433;SDS011;65265;53.200;6.080;2023-04-01T22:49:24;6.65;;;2.83;;
76433;SDS011;65265;53.200;6.080;2023-04-01T22:54:25;10.35;;;3.38;;
76433;SDS011;65265;53.200;6.080;2023-04-01T22:59:31;6.53;;;2.78;;
76433;SDS011;65265;53.200;6.080;2023-04-01T23:04:38;7.00;;;3.53;;
76433;SDS011;65265;53.200;6.080;2023-04-01T23:09:36;4.43;;;2.80;;
76433;SDS011;65265;53.200;6.080;2023-04-01T23:19:42;6.88;;;2.42;;
76433;SDS011;65265;53.200;6.080;2023-04-01T23:24:48;6.88;;;3.47;;
76433;SDS011;65265;53.200;6.080;2023-04-01T23:29:46;5.90;;;3.08;;
76433;SDS011;65265;53.200;6.080;2023-04-01T23:34:38;5.53;;;2.30;;
76433;SDS011;65265;53.200;6.080;2023-04-01T23:39:32;5.47;;;3.33;;
76433;SDS011;65265;53.200;6.080;2023-04-01T23:44:29;4.78;;;1.90;;
76433;SDS011;65265;53.200;6.080;2023-04-01T23:49:25;6.95;;;2.90;;
76433;SDS011;65265;53.200;6.080;2023-04-01T23:54:29;7.55;;;4.28;;
76433;SDS011;65265;53.200;6.080;2023-04-01T23:59:23;5.38;;;2.10;;
